Time;durP1;ratioP1;P1;durP2;ratioP2;P2;SDS_P1;SDS_P2;PMS_P1;PMS_P2;Temp;Humidity;BMP_temperature;BMP_pressure;BME280_temperature;BME280_humidity;BME280_pressure;Samples;Min_cycle;Max_cycle;Signal;HPM_P1;HPM_P2
2021/12/09 00:01:40;;;;;;;52.50;33.70;;;1.80;98.30;;;;;;4162563;28;20218;-83
2021/12/09 00:03:43;;;;;;;53.35;33.70;;;1.90;98.30;;;;;;4156429;28;20222;-82
2021/12/09 00:05:47;;;;;;;55.03;35.90;;;1.80;98.30;;;;;;4168593;28;20202;-83
2021/12/09 00:07:52;;;;;;;56.45;34.63;;;1.80;98.30;;;;;;4172838;28;20206;-83
2021/12/09 00:09:56;;;;;;;47.67;33.40;;;1.80;98.30;;;;;;4166641;28;20206;-83
2021/12/09 00:11:59;;;;;;;52.78;35.03;;;1.80;98.30;;;;;;4158372;28;20206;-83
2021/12/09 00:14:02;;;;;;;57.70;36.00;;;1.80;98.30;;;;;;4166241;28;20226;-83
2021/12/09 00:16:06;;;;;;;57.00;36.00;;;1.80;98.30;;;;;;4163861;28;20249;-83
2021/12/09 00:18:09;;;;;;;58.60;36.80;;;1.80;98.30;;;;;;4166527;28;20602;-83
2021/12/09 00:20:13;;;;;;;50.10;34.95;;;1.80;98.30;;;;;;4166427;28;20217;-82
2021/12/09 00:22:16;;;;;;;51.38;35.85;;;1.80;98.30;;;;;;4167187;28;20221;-83
2021/12/09 00:24:20;;;;;;;51.45;34.25;;;1.80;98.30;;;;;;4166833;28;20239;-83
2021/12/09 00:26:23;;;;;;;59.33;36.10;;;1.80;98.30;;;;;;4167796;28;20597;-83
2021/12/09 00:28:26;;;;;;;52.75;34.10;;;1.80;98.30;;;;;;4162877;28;20206;-83
2021/12/09 00:30:30;;;;;;;46.30;33.10;;;1.90;98.30;;;;;;4163759;28;20222;-83
2021/12/09 00:32:33;;;;;;;52.15;35.05;;;1.90;98.30;;;;;;4166878;28;20211;-83
2021/12/09 00:34:40;;;;;;;53.58;34.67;;;1.80;98.30;;;;;;4166493;28;20243;-83
2021/12/09 00:36:55;;;;;;;51.25;33.85;;;1.80;98.30;;;;;;4165847;28;20231;-83
2021/12/09 00:38:59;;;;;;;53.30;35.35;;;1.80;98.30;;;;;;4166432;28;20241;-83
2021/12/09 00:41:05;;;;;;;52.40;33.92;;;1.80;98.30;;;;;;4156761;28;20294;-83
2021/12/09 00:43:08;;;;;;;53.55;35.42;;;1.80;98.30;;;;;;4166039;28;20283;-82
2021/12/09 00:45:12;;;;;;;52.67;35.35;;;1.90;98.30;;;;;;4165864;28;20229;-83
2021/12/09 00:47:14;;;;;;;54.25;35.03;;;1.90;98.30;;;;;;4166193;28;20325;-83
2021/12/09 00:49:18;;;;;;;52.45;34.75;;;1.90;98.30;;;;;;4165904;28;20238;-83
2021/12/09 00:51:20;;;;;;;51.13;33.63;;;1.90;98.30;;;;;;4165912;28;20198;-82
2021/12/09 00:53:24;;;;;;;53.33;35.55;;;1.90;98.30;;;;;;4164395;28;20651;-83
2021/12/09 00:55:27;;;;;;;46.20;31.90;;;2.00;98.30;;;;;;4161622;28;20211;-83
2021/12/09 00:57:32;;;;;;;51.63;35.53;;;1.90;98.30;;;;;;4166647;28;20209;-83
2021/12/09 00:59:35;;;;;;;53.58;35.75;;;1.90;98.30;;;;;;4167164;28;20202;-83
2021/12/09 01:01:38;;;;;;;56.10;34.92;;;1.90;98.30;;;;;;4166827;28;20225;-82
2021/12/09 01:03:43;;;;;;;53.63;35.17;;;1.80;98.30;;;;;;4172623;28;20650;-82
2021/12/09 01:05:46;;;;;;;53.75;36.13;;;1.80;98.30;;;;;;4167772;28;20605;-83
2021/12/09 01:08:09;;;;;;;51.38;33.15;;;1.80;98.30;;;;;;4161561;28;20688;-83
2021/12/09 01:10:15;;;;;;;54.60;34.78;;;1.70;98.30;;;;;;4160487;28;20218;-83
2021/12/09 01:12:18;;;;;;;54.60;34.97;;;1.70;98.30;;;;;;4169003;28;20615;-83
2021/12/09 01:14:23;;;;;;;52.35;36.00;;;1.80;98.30;;;;;;4153804;28;20249;-83
2021/12/09 01:16:26;;;;;;;52.28;35.78;;;1.80;98.30;;;;;;4168680;28;20234;-83
2021/12/09 01:18:29;;;;;;;57.28;37.03;;;1.80;98.30;;;;;;4166261;28;20262;-83
2021/12/09 01:20:33;;;;;;;61.92;37.80;;;1.80;98.30;;;;;;4166998;28;20219;-83
2021/12/09 01:22:39;;;;;;;56.17;37.10;;;1.80;98.30;;;;;;4169358;28;20214;-82
2021/12/09 01:24:42;;;;;;;61.13;38.92;;;1.80;98.30;;;;;;4168650;28;20214;-82
2021/12/09 01:26:48;;;;;;;58.60;38.72;;;1.80;98.30;;;;;;4169401;28;20231;-82
2021/12/09 01:28:56;;;;;;;60.17;38.30;;;1.80;98.30;;;;;;4170512;28;20297;-83
2021/12/09 01:31:02;;;;;;;57.50;37.83;;;1.80;98.30;;;;;;4169583;28;20215;-83
2021/12/09 01:33:06;;;;;;;57.25;37.80;;;1.70;98.30;;;;;;4172276;28;20197;-82
2021/12/09 01:35:10;;;;;;;59.85;39.05;;;1.70;98.30;;;;;;4166711;28;20231;-83
2021/12/09 01:37:13;;;;;;;60.67;37.85;;;1.70;98.30;;;;;;4166378;28;20235;-83
2021/12/09 01:39:17;;;;;;;62.10;38.05;;;1.80;98.30;;;;;;4153958;28;20221;-83
2021/12/09 01:41:20;;;;;;;63.53;38.90;;;1.70;98.30;;;;;;4166138;28;20221;-83
2021/12/09 01:43:23;;;;;;;62.40;39.17;;;1.70;98.30;;;;;;4164793;28;20217;-84
2021/12/09 01:45:27;;;;;;;62.10;38.05;;;1.60;98.30;;;;;;4165156;28;20199;-83
2021/12/09 01:47:32;;;;;;;63.05;38.25;;;1.70;98.30;;;;;;4163980;28;20694;-83
2021/12/09 01:49:35;;;;;;;60.45;39.42;;;1.70;98.30;;;;;;4157593;28;20214;-84
2021/12/09 01:51:40;;;;;;;64.32;39.65;;;1.70;98.30;;;;;;4164470;28;20663;-83
2021/12/09 01:53:44;;;;;;;66.68;40.50;;;1.70;98.30;;;;;;4161566;28;20578;-83
2021/12/09 01:55:47;;;;;;;60.20;39.03;;;1.70;98.30;;;;;;4164992;28;20690;-83
2021/12/09 01:57:52;;;;;;;67.50;39.05;;;1.70;98.30;;;;;;4165666;28;20207;-83
2021/12/09 01:59:55;;;;;;;66.60;39.30;;;1.70;98.30;;;;;;4164556;28;20297;-83
2021/12/09 02:01:58;;;;;;;63.92;39.70;;;1.70;98.30;;;;;;4165930;28;20219;-83
2021/12/09 02:04:07;;;;;;;72.78;41.20;;;1.70;98.30;;;;;;4167364;28;20856;-83
2021/12/09 02:06:10;;;;;;;65.95;39.53;;;1.60;98.30;;;;;;4154803;28;20305;-83
2021/12/09 02:08:15;;;;;;;60.13;37.70;;;1.60;98.30;;;;;;4156115;28;20225;-83
2021/12/09 02:10:20;;;;;;;61.85;37.00;;;1.60;98.30;;;;;;4153928;28;20660;-83
2021/12/09 02:12:23;;;;;;;65.63;41.22;;;1.70;98.30;;;;;;4161755;28;20952;-83
2021/12/09 02:14:26;;;;;;;64.93;40.35;;;1.70;98.30;;;;;;4158805;28;20205;-80
2021/12/09 02:16:29;;;;;;;67.32;39.35;;;1.70;98.30;;;;;;4169010;28;20714;-83
2021/12/09 02:18:32;;;;;;;68.75;39.20;;;1.60;98.30;;;;;;4167038;28;20282;-83
2021/12/09 02:20:39;;;;;;;65.60;39.63;;;1.60;98.30;;;;;;4166695;28;20635;-83
2021/12/09 02:22:46;;;;;;;68.97;39.00;;;1.60;98.30;;;;;;4168346;28;20221;-83
2021/12/09 02:24:49;;;;;;;60.17;38.55;;;1.60;98.30;;;;;;4168606;28;20207;-83
2021/12/09 02:26:52;;;;;;;61.63;39.40;;;1.60;98.30;;;;;;4165442;28;20262;-83
2021/12/09 02:28:56;;;;;;;70.53;39.50;;;1.70;98.30;;;;;;4167567;28;20234;-83
2021/12/09 02:30:59;;;;;;;65.30;39.78;;;1.60;98.30;;;;;;4169249;28;20288;-82
2021/12/09 02:33:03;;;;;;;73.72;41.35;;;1.60;98.30;;;;;;4162050;28;20214;-83
2021/12/09 02:35:06;;;;;;;69.20;39.55;;;1.60;98.30;;;;;;4163917;28;20385;-83
2021/12/09 02:37:13;;;;;;;65.40;39.28;;;1.60;98.30;;;;;;4164898;28;20229;-83
2021/12/09 02:39:16;;;;;;;69.18;40.28;;;1.60;98.30;;;;;;4170332;28;20194;-84
2021/12/09 02:41:22;;;;;;;74.90;38.30;;;1.60;98.30;;;;;;4165136;28;20224;-83
2021/12/09 02:43:27;;;;;;;62.45;38.47;;;1.60;98.30;;;;;;4164608;28;20242;-83
2021/12/09 02:45:30;;;;;;;69.15;40.30;;;1.60;98.30;;;;;;4164822;28;20199;-83
2021/12/09 02:47:33;;;;;;;76.68;41.47;;;1.70;98.30;;;;;;4165076;28;20217;-83
2021/12/09 02:49:36;;;;;;;70.35;38.75;;;1.70;98.30;;;;;;4164973;28;20214;-82
2021/12/09 02:51:41;;;;;;;64.60;39.92;;;1.70;98.30;;;;;;4163159;28;20686;-83
2021/12/09 02:53:46;;;;;;;73.57;40.92;;;1.70;98.30;;;;;;4160862;28;20568;-82
2021/12/09 02:55:49;;;;;;;66.20;39.45;;;1.70;98.30;;;;;;4163117;28;20222;-82
2021/12/09 02:57:53;;;;;;;73.00;41.83;;;1.70;98.30;;;;;;4171834;28;20605;-83
2021/12/09 02:59:55;;;;;;;75.03;40.13;;;1.70;98.30;;;;;;4168072;28;20203;-83
2021/12/09 03:02:00;;;;;;;69.13;40.90;;;1.60;98.30;;;;;;4164663;28;20210;-83
2021/12/09 03:04:05;;;;;;;71.28;40.42;;;1.60;98.30;;;;;;4164790;28;20262;-82
2021/12/09 03:06:08;;;;;;;69.13;40.08;;;1.60;98.30;;;;;;4165565;28;20613;-83
2021/12/09 03:08:11;;;;;;;67.03;41.25;;;1.60;98.30;;;;;;4164731;28;20880;-83
2021/12/09 03:10:20;;;;;;;73.75;42.42;;;1.60;98.30;;;;;;4163886;28;20207;-83
2021/12/09 03:12:25;;;;;;;75.28;42.45;;;1.60;98.30;;;;;;4174485;28;20205;-83
2021/12/09 03:14:28;;;;;;;69.60;40.60;;;1.60;98.30;;;;;;4165895;28;20209;-82
2021/12/09 03:16:31;;;;;;;74.35;41.95;;;1.60;98.30;;;;;;4165067;28;20250;-83
2021/12/09 03:18:42;;;;;;;73.85;41.50;;;1.60;98.30;;;;;;4157258;28;20365;-83
2021/12/09 03:20:45;;;;;;;84.78;42.28;;;1.70;98.30;;;;;;4162605;28;20222;-82
2021/12/09 03:22:49;;;;;;;70.85;40.70;;;1.60;98.30;;;;;;4155425;28;20211;-83
2021/12/09 03:24:53;;;;;;;72.03;41.33;;;1.50;98.30;;;;;;4170345;28;20195;-82
2021/12/09 03:26:58;;;;;;;75.25;43.92;;;1.50;98.30;;;;;;4159793;28;20225;-83
2021/12/09 03:29:05;;;;;;;80.18;44.10;;;1.50;98.30;;;;;;4173742;28;20214;-82
2021/12/09 03:31:33;;;;;;;83.32;45.03;;;1.50;98.30;;;;;;4167884;28;20278;-83
2021/12/09 03:33:36;;;;;;;81.20;44.25;;;1.40;98.30;;;;;;4167260;28;20207;-83
2021/12/09 03:36:29;;;;;;;75.82;43.55;;;1.50;98.30;;;;;;4169069;28;20245;-83
2021/12/09 03:38:33;;;;;;;74.32;42.38;;;1.50;98.30;;;;;;4157086;28;20289;-84
2021/12/09 03:40:37;;;;;;;79.70;42.45;;;1.50;98.30;;;;;;4168189;28;20238;-83
2021/12/09 03:42:43;;;;;;;78.65;43.75;;;1.50;98.30;;;;;;4168197;28;20218;-83
2021/12/09 03:44:48;;;;;;;77.80;42.90;;;1.50;98.30;;;;;;4165497;28;20203;-82
2021/12/09 03:46:53;;;;;;;79.07;44.42;;;1.50;98.30;;;;;;4171538;28;20257;-84
2021/12/09 03:49:21;;;;;;;77.78;41.28;;;1.50;98.30;;;;;;4167241;28;20745;-84
2021/12/09 03:51:24;;;;;;;73.72;40.55;;;1.40;98.30;;;;;;4166909;28;20686;-84
2021/12/09 03:53:26;;;;;;;76.72;40.88;;;1.40;98.30;;;;;;4166349;28;20203;-84
2021/12/09 03:55:30;;;;;;;72.80;40.97;;;1.40;98.30;;;;;;4165763;28;20203;-83
2021/12/09 03:57:33;;;;;;;77.90;43.83;;;1.50;98.30;;;;;;4154117;28;20306;-84
2021/12/09 03:59:37;;;;;;;75.40;42.42;;;1.60;98.30;;;;;;4166855;28;20207;-84
2021/12/09 04:01:42;;;;;;;73.90;40.63;;;1.60;98.30;;;;;;4167191;28;20218;-83
2021/12/09 04:03:46;;;;;;;81.70;44.33;;;1.60;98.30;;;;;;4166308;28;20206;-84
2021/12/09 04:05:49;;;;;;;75.88;43.72;;;1.50;98.30;;;;;;4165747;28;20225;-84
2021/12/09 04:07:53;;;;;;;77.15;42.50;;;1.50;98.30;;;;;;4167128;28;20211;-84
2021/12/09 04:09:56;;;;;;;73.97;43.35;;;1.60;98.30;;;;;;4165987;28;20215;-85
2021/12/09 04:11:59;;;;;;;82.13;46.05;;;1.50;98.30;;;;;;4166838;28;20211;-84
2021/12/09 04:14:02;;;;;;;74.93;43.05;;;1.50;98.30;;;;;;4166278;28;20217;-84
2021/12/09 04:16:07;;;;;;;80.30;43.78;;;1.50;98.30;;;;;;4166652;28;20245;-84
2021/12/09 04:18:10;;;;;;;72.78;40.63;;;1.50;98.30;;;;;;4166898;28;20207;-84
2021/12/09 04:20:14;;;;;;;79.70;42.58;;;1.50;98.30;;;;;;4165283;28;20613;-85
2021/12/09 04:22:20;;;;;;;71.07;42.33;;;1.50;98.30;;;;;;4166240;28;20215;-84
2021/12/09 04:24:23;;;;;;;76.43;43.47;;;1.60;98.30;;;;;;4161852;28;20210;-84
2021/12/09 04:26:26;;;;;;;84.38;44.10;;;1.60;98.30;;;;;;4165141;28;20229;-84
2021/12/09 04:28:29;;;;;;;81.70;44.05;;;1.60;98.30;;;;;;4166636;28;20234;-84
2021/12/09 04:30:57;;;;;;;88.47;48.65;;;1.50;98.30;;;;;;4160662;28;20233;-84
2021/12/09 04:33:26;;;;;;;74.90;42.33;;;1.50;98.30;;;;;;4166555;28;20217;-84
2021/12/09 04:35:29;;;;;;;74.63;41.08;;;1.60;98.30;;;;;;4165900;28;20209;-83
2021/12/09 04:37:33;;;;;;;79.28;44.78;;;1.60;98.30;;;;;;4166371;28;20227;-84
2021/12/09 04:39:37;;;;;;;72.18;40.28;;;1.50;98.30;;;;;;4166477;28;20215;-83
2021/12/09 04:41:40;;;;;;;70.38;41.80;;;1.60;98.30;;;;;;4166492;28;20211;-84
2021/12/09 04:43:43;;;;;;;80.78;43.45;;;1.60;98.30;;;;;;4158326;28;20671;-83
2021/12/09 04:45:47;;;;;;;72.75;43.13;;;1.60;98.30;;;;;;4164931;28;20217;-84
2021/12/09 04:47:50;;;;;;;77.63;41.75;;;1.60;98.30;;;;;;4164495;28;20206;-83
2021/12/09 04:49:54;;;;;;;80.53;43.25;;;1.60;98.30;;;;;;4170358;28;20207;-83
2021/12/09 04:52:07;;;;;;;79.97;43.55;;;1.50;98.30;;;;;;4166496;28;20568;-84
2021/12/09 04:54:11;;;;;;;77.50;44.30;;;1.50;98.30;;;;;;4157814;28;20253;-84
2021/12/09 04:56:13;;;;;;;78.50;41.58;;;1.60;98.30;;;;;;4161601;28;20234;-84
2021/12/09 04:58:16;;;;;;;68.45;41.38;;;1.60;98.30;;;;;;4166258;28;20222;-85
2021/12/09 05:00:24;;;;;;;85.03;43.65;;;1.50;98.30;;;;;;4166401;28;20229;-84
2021/12/09 05:02:37;;;;;;;72.85;41.47;;;1.40;98.30;;;;;;4165703;28;20349;-84
2021/12/09 05:04:40;;;;;;;75.63;43.08;;;1.50;98.30;;;;;;4165357;28;20658;-83
2021/12/09 05:06:44;;;;;;;72.57;41.72;;;1.40;98.30;;;;;;4164065;28;20703;-83
2021/12/09 05:08:49;;;;;;;76.78;42.83;;;1.50;98.30;;;;;;4169898;28;20214;-85
2021/12/09 05:11:00;;;;;;;75.25;43.03;;;1.50;98.30;;;;;;4167154;28;20289;-83
2021/12/09 05:13:05;;;;;;;74.00;41.88;;;1.50;98.30;;;;;;4167255;28;20217;-83
2021/12/09 05:15:08;;;;;;;74.63;42.50;;;1.50;98.30;;;;;;4165268;28;20213;-83
2021/12/09 05:17:12;;;;;;;70.15;41.40;;;1.40;98.30;;;;;;4163603;28;20235;-82
2021/12/09 05:19:15;;;;;;;64.72;39.42;;;1.50;98.30;;;;;;4161604;28;20651;-84
2021/12/09 05:21:18;;;;;;;71.43;41.97;;;1.40;98.30;;;;;;4165384;28;20290;-83
2021/12/09 05:23:24;;;;;;;70.95;42.47;;;1.50;98.30;;;;;;4163318;28;20702;-83
2021/12/09 05:25:27;;;;;;;66.68;42.67;;;1.40;98.30;;;;;;4165420;28;20229;-83
2021/12/09 05:27:30;;;;;;;79.55;45.22;;;1.40;98.30;;;;;;4165814;28;20233;-83
2021/12/09 05:29:38;;;;;;;74.35;44.60;;;1.40;98.30;;;;;;4163040;28;20689;-83
2021/12/09 05:34:02;;;;;;;71.25;39.47;;;1.40;98.30;;;;;;4163723;28;20290;-83
2021/12/09 05:36:05;;;;;;;71.30;41.92;;;1.30;98.30;;;;;;4165343;28;20227;-84
2021/12/09 05:38:08;;;;;;;75.55;41.38;;;1.40;98.30;;;;;;4162200;28;22627;-83
2021/12/09 05:40:12;;;;;;;67.95;42.83;;;1.40;98.30;;;;;;4157486;28;20211;-84
2021/12/09 05:42:17;;;;;;;73.35;42.15;;;1.40;98.30;;;;;;4165546;28;20210;-84
2021/12/09 05:44:21;;;;;;;66.68;40.50;;;1.40;98.30;;;;;;4165938;28;20617;-83
2021/12/09 05:46:24;;;;;;;73.75;42.60;;;1.40;98.30;;;;;;4165432;28;20636;-84
2021/12/09 05:48:27;;;;;;;72.57;42.30;;;1.50;98.30;;;;;;4165579;28;20206;-83
2021/12/09 05:50:31;;;;;;;76.00;43.25;;;1.40;98.30;;;;;;4166189;28;20851;-85
2021/12/09 05:52:34;;;;;;;74.57;42.60;;;1.40;98.30;;;;;;4166860;28;20203;-84
2021/12/09 05:54:37;;;;;;;66.25;40.63;;;1.40;98.30;;;;;;4169810;28;20214;-83
2021/12/09 05:56:41;;;;;;;75.38;42.72;;;1.50;98.30;;;;;;4165217;28;21013;-84
2021/12/09 05:58:45;;;;;;;69.47;40.95;;;1.40;98.30;;;;;;4170092;28;20609;-83
2021/12/09 06:00:49;;;;;;;71.95;43.15;;;1.40;98.30;;;;;;4165924;28;20590;-84
2021/12/09 06:02:52;;;;;;;71.80;41.55;;;1.50;98.30;;;;;;4168632;28;20651;-85
2021/12/09 06:04:55;;;;;;;71.53;42.00;;;1.40;98.30;;;;;;4174733;28;20317;-83
2021/12/09 06:06:58;;;;;;;77.13;41.05;;;1.40;98.30;;;;;;4161888;28;20310;-83
2021/12/09 06:09:01;;;;;;;73.25;44.72;;;1.40;98.30;;;;;;4164782;28;20210;-83
2021/12/09 06:11:05;;;;;;;81.68;46.20;;;1.50;98.30;;;;;;4168113;28;20217;-84
2021/12/09 06:13:09;;;;;;;78.68;45.10;;;1.50;98.30;;;;;;4168640;28;20295;-84
2021/12/09 06:15:13;;;;;;;77.25;44.70;;;1.40;98.30;;;;;;4170079;28;20233;-84
2021/12/09 06:17:33;;;;;;;76.55;43.03;;;1.40;98.30;;;;;;4166129;28;20298;-84
2021/12/09 06:19:36;;;;;;;77.57;45.35;;;1.30;98.30;;;;;;4164805;28;20211;-83
2021/12/09 06:21:39;;;;;;;75.63;43.65;;;1.40;98.30;;;;;;4165471;28;20302;-83
2021/12/09 06:23:42;;;;;;;76.57;45.70;;;1.30;98.30;;;;;;4165086;28;20578;-84
2021/12/09 06:25:47;;;;;;;77.78;44.33;;;1.40;98.30;;;;;;4165194;28;20225;-83
2021/12/09 06:27:51;;;;;;;86.72;48.47;;;1.40;98.30;;;;;;4165251;28;20302;-84
2021/12/09 06:29:55;;;;;;;75.57;42.90;;;1.30;98.30;;;;;;4165031;28;20550;-84
2021/12/09 06:32:12;;;;;;;77.32;43.50;;;1.40;98.30;;;;;;4164002;28;20241;-84
2021/12/09 06:34:15;;;;;;;73.20;44.40;;;1.30;98.30;;;;;;4164958;28;20216;-82
2021/12/09 06:36:19;;;;;;;73.03;43.08;;;1.30;98.30;;;;;;4164684;28;20235;-83
2021/12/09 06:38:22;;;;;;;80.15;44.78;;;1.30;98.30;;;;;;4164896;28;20289;-83
2021/12/09 06:40:25;;;;;;;75.38;44.65;;;1.20;98.30;;;;;;4164874;28;20222;-83
2021/12/09 06:42:28;;;;;;;83.35;45.33;;;1.20;98.30;;;;;;4164129;28;20332;-83
2021/12/09 06:44:32;;;;;;;78.57;44.45;;;1.20;98.30;;;;;;4146608;28;20210;-82
2021/12/09 06:46:37;;;;;;;76.82;42.75;;;1.20;98.30;;;;;;4163920;28;20250;-84
2021/12/09 06:48:41;;;;;;;82.47;44.80;;;1.20;98.30;;;;;;4164012;28;20214;-84
2021/12/09 06:50:44;;;;;;;79.32;42.92;;;1.20;98.30;;;;;;4156923;28;20218;-84
2021/12/09 06:52:48;;;;;;;75.70;44.42;;;1.20;98.30;;;;;;4163806;28;20651;-84
2021/12/09 06:54:51;;;;;;;83.50;47.85;;;1.20;98.30;;;;;;4164439;28;20220;-84
2021/12/09 06:56:54;;;;;;;75.88;43.30;;;1.20;98.30;;;;;;4169506;28;20294;-83
2021/12/09 06:58:58;;;;;;;80.20;45.10;;;1.20;98.30;;;;;;4165007;28;20226;-82
2021/12/09 07:01:09;;;;;;;83.53;46.75;;;1.20;98.30;;;;;;4164266;28;20234;-83
2021/12/09 07:03:16;;;;;;;74.00;43.55;;;1.30;98.30;;;;;;4163889;28;20214;-83
2021/12/09 07:05:22;;;;;;;83.90;46.33;;;1.30;98.30;;;;;;4163775;28;20210;-83
2021/12/09 07:07:25;;;;;;;73.90;44.33;;;1.30;98.30;;;;;;4162156;28;20284;-82
2021/12/09 07:09:30;;;;;;;78.28;45.17;;;1.30;98.30;;;;;;4163472;28;20218;-83
2021/12/09 07:11:33;;;;;;;76.70;46.03;;;1.30;98.30;;;;;;4163948;28;20239;-83
2021/12/09 07:13:36;;;;;;;84.25;44.25;;;1.30;98.30;;;;;;4163662;28;20214;-83
2021/12/09 07:15:39;;;;;;;73.45;41.78;;;1.30;98.30;;;;;;4163876;28;20218;-84
2021/12/09 07:17:44;;;;;;;75.03;44.22;;;1.30;98.30;;;;;;4162770;28;20280;-83
2021/12/09 07:19:49;;;;;;;76.38;42.95;;;1.30;98.30;;;;;;4163898;28;20254;-83
2021/12/09 07:21:51;;;;;;;73.85;44.47;;;1.30;98.30;;;;;;4163940;28;20223;-82
2021/12/09 07:23:54;;;;;;;74.93;44.63;;;1.30;98.30;;;;;;4163364;28;20223;-83
2021/12/09 07:26:03;;;;;;;77.88;44.95;;;1.30;98.30;;;;;;4169294;28;20740;-83
2021/12/09 07:28:21;;;;;;;75.07;43.95;;;1.30;98.30;;;;;;4163192;28;20629;-83
2021/12/09 07:30:26;;;;;;;81.43;44.63;;;1.30;98.30;;;;;;4164079;28;20207;-84
2021/12/09 07:32:32;;;;;;;80.60;44.60;;;1.20;98.30;;;;;;4172030;28;20898;-84
2021/12/09 07:34:35;;;;;;;80.53;44.85;;;1.20;98.30;;;;;;4163534;28;20218;-83
2021/12/09 07:36:39;;;;;;;75.65;44.30;;;1.30;98.30;;;;;;4163382;28;20223;-83
2021/12/09 07:38:46;;;;;;;77.65;44.72;;;1.30;98.30;;;;;;4163715;28;20227;-83
2021/12/09 07:40:49;;;;;;;81.80;45.70;;;1.40;98.30;;;;;;4156667;28;20207;-84
2021/12/09 07:42:52;;;;;;;78.30;44.05;;;1.40;98.30;;;;;;4163646;28;20211;-84
2021/12/09 07:44:55;;;;;;;78.53;46.55;;;1.30;98.30;;;;;;4163639;28;20207;-83
2021/12/09 07:47:00;;;;;;;79.10;44.00;;;1.30;98.30;;;;;;4163734;28;20312;-82
2021/12/09 07:49:06;;;;;;;74.97;43.70;;;1.30;98.30;;;;;;4158794;28;20294;-83
2021/12/09 07:51:09;;;;;;;75.00;44.65;;;1.30;98.30;;;;;;4167722;28;20222;-82
2021/12/09 07:53:13;;;;;;;81.13;44.72;;;1.30;98.30;;;;;;4163183;28;20586;-84
2021/12/09 07:55:18;;;;;;;76.80;44.40;;;1.30;98.30;;;;;;4163946;28;20211;-82
2021/12/09 07:57:21;;;;;;;75.65;44.85;;;1.20;98.30;;;;;;4163733;28;20296;-83
2021/12/09 07:59:24;;;;;;;74.55;42.72;;;1.20;98.30;;;;;;4164127;28;20227;-83
2021/12/09 08:01:27;;;;;;;81.13;45.60;;;1.30;98.30;;;;;;4165300;28;20211;-84
2021/12/09 08:05:49;;;;;;;79.90;46.83;;;1.30;98.30;;;;;;4163990;28;20230;-83
2021/12/09 08:07:51;;;;;;;80.63;48.70;;;1.30;98.30;;;;;;4171674;28;20215;-83
2021/12/09 08:12:13;;;;;;;77.43;44.35;;;1.30;98.30;;;;;;4161192;28;20690;-83
2021/12/09 08:14:19;;;;;;;73.13;45.42;;;1.40;98.30;;;;;;4163253;28;20207;-84
2021/12/09 08:16:23;;;;;;;78.65;47.92;;;1.40;98.30;;;;;;4163429;28;20787;-83
2021/12/09 08:18:27;;;;;;;82.47;47.13;;;1.50;98.30;;;;;;4163252;28;20238;-83
2021/12/09 08:20:31;;;;;;;84.50;47.67;;;1.40;98.30;;;;;;4168182;28;20215;-82
2021/12/09 08:22:35;;;;;;;74.05;43.05;;;1.40;98.30;;;;;;4163302;28;20215;-84
2021/12/09 08:24:38;;;;;;;85.65;46.00;;;1.40;98.30;;;;;;4163101;28;20229;-83
2021/12/09 08:26:42;;;;;;;83.38;48.10;;;1.30;98.30;;;;;;4170800;28;20218;-83
2021/12/09 08:28:45;;;;;;;80.68;45.63;;;1.40;98.30;;;;;;4169028;28;20221;-84
2021/12/09 08:30:51;;;;;;;78.47;45.67;;;1.40;98.30;;;;;;4166208;28;20223;-84
2021/12/09 08:32:59;;;;;;;75.97;45.00;;;1.50;98.30;;;;;;4165844;28;20214;-83
2021/12/09 08:35:05;;;;;;;83.50;46.03;;;1.40;98.30;;;;;;4166171;28;20218;-83
2021/12/09 08:37:08;;;;;;;75.00;45.03;;;1.30;98.30;;;;;;4165870;28;20246;-83
2021/12/09 08:39:11;;;;;;;81.68;44.92;;;1.30;98.30;;;;;;4165959;28;20235;-83
2021/12/09 08:41:15;;;;;;;78.43;43.65;;;1.40;98.30;;;;;;4166226;28;20218;-83
2021/12/09 08:43:23;;;;;;;80.68;46.75;;;1.40;98.30;;;;;;4166158;28;20223;-84
2021/12/09 08:45:26;;;;;;;76.88;46.55;;;1.50;98.30;;;;;;4170734;28;20217;-84
2021/12/09 08:47:29;;;;;;;78.95;43.03;;;1.40;98.30;;;;;;4169911;28;20230;-82
2021/12/09 08:49:33;;;;;;;78.35;45.65;;;1.30;98.30;;;;;;4169575;28;20214;-82
2021/12/09 08:51:37;;;;;;;86.32;45.35;;;1.40;98.30;;;;;;4166245;28;20226;-83
2021/12/09 08:53:40;;;;;;;75.57;43.42;;;1.40;98.30;;;;;;4165588;28;20218;-82
2021/12/09 08:55:44;;;;;;;87.85;44.22;;;1.40;98.30;;;;;;4168555;28;20249;-83
2021/12/09 08:57:47;;;;;;;85.55;47.88;;;1.40;98.30;;;;;;4158208;28;20218;-84
2021/12/09 08:59:51;;;;;;;78.32;45.35;;;1.50;98.30;;;;;;4165832;28;20238;-83
2021/12/09 09:01:55;;;;;;;81.05;45.10;;;1.40;98.30;;;;;;4165884;28;20241;-83
2021/12/09 09:03:58;;;;;;;80.18;46.05;;;1.40;98.30;;;;;;4165502;28;20666;-83
2021/12/09 09:06:02;;;;;;;76.82;44.25;;;1.40;98.30;;;;;;4165611;28;20226;-83
2021/12/09 09:08:07;;;;;;;86.63;44.55;;;1.40;98.30;;;;;;4167557;28;20218;-84
2021/12/09 09:10:16;;;;;;;86.15;46.67;;;1.40;98.30;;;;;;4167972;28;20958;-84
2021/12/09 09:12:19;;;;;;;74.47;43.75;;;1.40;98.30;;;;;;4165636;28;20672;-83
2021/12/09 09:14:22;;;;;;;75.20;45.90;;;1.50;98.30;;;;;;4165516;28;20658;-84
2021/12/09 09:16:27;;;;;;;77.03;46.17;;;1.40;98.30;;;;;;4165437;28;20325;-84
2021/12/09 09:18:30;;;;;;;84.00;46.25;;;1.50;98.30;;;;;;4165810;28;20572;-83
2021/12/09 09:20:38;;;;;;;79.30;44.03;;;1.50;98.30;;;;;;4165856;28;20792;-82
2021/12/09 09:22:43;;;;;;;89.05;46.42;;;1.60;98.30;;;;;;4165520;28;20214;-83
2021/12/09 09:24:46;;;;;;;81.82;46.30;;;1.60;98.30;;;;;;4165313;28;20223;-82
2021/12/09 09:26:49;;;;;;;71.43;42.35;;;1.50;98.30;;;;;;4165555;28;20245;-84
2021/12/09 09:28:52;;;;;;;77.65;46.35;;;1.50;98.30;;;;;;4165412;28;20210;-83
2021/12/09 09:30:57;;;;;;;79.80;44.90;;;1.50;98.30;;;;;;4165650;28;20210;-83
2021/12/09 09:33:04;;;;;;;79.88;45.13;;;1.50;98.30;;;;;;4165206;28;20242;-83
2021/12/09 09:35:08;;;;;;;82.53;47.25;;;1.50;98.30;;;;;;4174788;28;20212;-83
2021/12/09 09:37:12;;;;;;;79.50;45.50;;;1.50;98.30;;;;;;4169296;28;20302;-83
2021/12/09 09:39:21;;;;;;;81.70;46.50;;;1.60;98.30;;;;;;4165411;28;20235;-83
2021/12/09 09:41:31;;;;;;;86.57;44.83;;;1.50;98.30;;;;;;4164778;28;20233;-83
2021/12/09 09:43:55;;;;;;;77.90;45.47;;;1.50;98.30;;;;;;4165189;28;20228;-82
2021/12/09 09:46:01;;;;;;;82.35;46.83;;;1.60;98.30;;;;;;4153547;28;20235;-86
2021/12/09 09:48:11;;;;;;;85.15;48.00;;;1.50;98.30;;;;;;4158105;28;20199;-83
2021/12/09 09:50:14;;;;;;;86.00;47.10;;;1.60;98.30;;;;;;4166990;28;20207;-83
2021/12/09 09:52:18;;;;;;;83.35;46.92;;;1.60;98.30;;;;;;4170636;28;20228;-85
2021/12/09 09:54:21;;;;;;;84.07;45.67;;;1.60;98.30;;;;;;4167082;28;20213;-83
2021/12/09 09:56:25;;;;;;;75.20;45.65;;;1.60;98.30;;;;;;4172141;28;20233;-83
2021/12/09 09:58:29;;;;;;;81.60;43.58;;;1.50;98.30;;;;;;4171769;28;20211;-84
2021/12/09 10:00:32;;;;;;;81.32;45.90;;;1.60;98.30;;;;;;4177478;28;20229;-84
2021/12/09 10:02:35;;;;;;;86.55;47.65;;;1.60;98.30;;;;;;4168625;28;20207;-83
2021/12/09 10:04:44;;;;;;;84.80;45.90;;;1.60;98.30;;;;;;4166769;28;20211;-83
2021/12/09 10:06:48;;;;;;;87.07;48.45;;;1.60;98.30;;;;;;4166971;28;20242;-83
2021/12/09 10:08:51;;;;;;;85.57;46.88;;;1.60;98.30;;;;;;4166977;28;20246;-84
2021/12/09 10:10:54;;;;;;;90.10;50.00;;;1.60;98.30;;;;;;4166647;28;20289;-83
2021/12/09 10:13:00;;;;;;;82.85;47.30;;;1.60;98.30;;;;;;4168851;28;20769;-83
2021/12/09 10:15:04;;;;;;;80.95;45.72;;;1.60;98.30;;;;;;4173114;28;20222;-83
2021/12/09 10:17:09;;;;;;;87.85;49.20;;;1.50;98.30;;;;;;4166371;28;20248;-83
2021/12/09 10:19:18;;;;;;;82.38;48.72;;;1.50;98.30;;;;;;4166566;28;20191;-83
2021/12/09 10:21:25;;;;;;;88.43;49.42;;;1.60;98.30;;;;;;4166580;28;20649;-83
2021/12/09 10:23:37;;;;;;;84.57;46.00;;;1.60;98.30;;;;;;4166259;28;20644;-84
2021/12/09 10:25:40;;;;;;;86.03;48.95;;;1.50;98.30;;;;;;4164887;28;20569;-83
2021/12/09 10:27:45;;;;;;;89.32;48.33;;;1.60;98.30;;;;;;4165818;28;20214;-83
2021/12/09 10:29:48;;;;;;;80.18;47.08;;;1.60;98.30;;;;;;4165977;28;20210;-83
2021/12/09 10:31:55;;;;;;;79.20;44.92;;;1.50;98.30;;;;;;4165918;28;20222;-84
2021/12/09 10:34:21;;;;;;;80.63;46.22;;;1.50;98.30;;;;;;4165835;28;20668;-83
2021/12/09 10:36:41;;;;;;;82.05;46.38;;;1.50;98.30;;;;;;4165838;28;20223;-83
2021/12/09 10:38:45;;;;;;;83.63;45.70;;;1.60;98.30;;;;;;4165746;28;20199;-84
2021/12/09 10:40:48;;;;;;;84.40;44.72;;;1.60;98.30;;;;;;4173073;28;20234;-83
2021/12/09 10:42:54;;;;;;;82.65;47.65;;;1.60;98.30;;;;;;4165638;28;20209;-83
2021/12/09 10:45:01;;;;;;;88.95;48.50;;;1.50;98.30;;;;;;4165896;28;20289;-83
2021/12/09 10:47:14;;;;;;;85.82;46.72;;;1.60;98.30;;;;;;4165427;28;20325;-83
2021/12/09 10:49:21;;;;;;;78.40;46.55;;;1.70;98.30;;;;;;4165776;28;20933;-83